»·PEaware :: N914SP KLAS-KLAX

N914SP :: KLAS-KLAX

FLIGHT INFORMATION

Flight Status: Arrived
Operator: Privately registered:
United States
More flights under this callsign
Pilot: Tim L. (7088)
Aircraft: CESSNA 680 CITATION SOVEREIGN
(C680)
More flights by this aircraft type
Origin: KLAS McCarran Intl
United States
Destination: KLAX Los Angeles Intl
United States
More flights between these airports :: More routes between these airports
Route: BOACH6 HEC RIIVR2
File this flight plan on PilotEdge
Remarks: I09 TEST
Altitude:
(Current/Filed)
24,000ft
Speed:
(Current/Filed)
420kts
Departed: 06-Jul-15 04:23 PM
Arrived: 06-Jul-15 05:11 PM
Distance/Time
Traveled:
205nm/0:48
Distance/Time
To Go:
Arrived

Flight Plot

Page will automatically refresh every two minutes.


Map Options




Map Legend


Flown Route
Filed Route
Departure Airport
Arrival Airport
Navaid (VOR, NDB)
Fix

Horizontal Profiles

Position Reports

Time Latitude Longitude Heading Altitude Ground
Speed
06-Jul-15 16:09 36.082145 -115.153035 25 2145ft 0kts
06-Jul-15 16:10 36.082145 -115.153035 25 2145ft 0kts
06-Jul-15 16:11 36.082145 -115.153035 25 2145ft 0kts
06-Jul-15 16:12 36.082145 -115.153035 25 2145ft 0kts
06-Jul-15 16:13 36.082145 -115.153035 25 2145ft 0kts
06-Jul-15 16:14 36.081610 -115.151859 110 2145ft 15kts
06-Jul-15 16:15 36.079368 -115.147284 123 2145ft 4kts
06-Jul-15 16:16 36.078310 -115.142661 91 2145ft 17kts
06-Jul-15 16:17 36.078308 -115.136168 89 2145ft 14kts
06-Jul-15 16:18 36.078322 -115.130656 89 2145ft 17kts
06-Jul-15 16:19 36.078328 -115.124714 89 2145ft 17kts
06-Jul-15 16:20 36.077436 -115.121515 142 2145ft 0kts
06-Jul-15 16:21 36.077436 -115.121515 142 2145ft 0kts
06-Jul-15 16:22 36.076440 -115.129518 272 2159ft 127kts
06-Jul-15 16:23 36.076493 -115.184177 271 3628ft 167kts
06-Jul-15 16:24 36.076132 -115.242243 260 4695ft 171kts
06-Jul-15 16:25 36.033321 -115.272344 203 5761ft 233kts
06-Jul-15 16:26 35.964386 -115.302594 185 8724ft 277kts
06-Jul-15 16:27 35.886729 -115.311659 188 10653ft 285kts
06-Jul-15 16:28 35.805765 -115.309217 178 12573ft 298kts
06-Jul-15 16:29 35.722320 -115.299775 178 14481ft 306kts
06-Jul-15 16:30 35.646318 -115.339551 226 16472ft 329kts
06-Jul-15 16:31 35.581713 -115.424833 228 18391ft 348kts
06-Jul-15 16:32 35.515601 -115.513497 228 20288ft 355kts
06-Jul-15 16:33 35.448844 -115.602851 228 22170ft 356kts
06-Jul-15 16:34 35.389916 -115.681438 228 23844ft 354kts
06-Jul-15 16:35 35.319907 -115.774888 226 24051ft 390kts
06-Jul-15 16:36 35.244460 -115.874928 225 24046ft 412kts
06-Jul-15 16:37 35.164675 -115.980521 225 24039ft 422kts
06-Jul-15 16:38 35.085072 -116.085589 225 24041ft 422kts
06-Jul-15 16:39 35.005430 -116.190913 225 24038ft 430kts
06-Jul-15 16:40 34.922652 -116.299215 228 24197ft 424kts
06-Jul-15 16:41 34.844574 -116.401702 227 23993ft 407kts
06-Jul-15 16:42 34.763425 -116.494890 218 23998ft 396kts
06-Jul-15 16:43 34.676499 -116.576690 218 23357ft 394kts
06-Jul-15 16:44 34.590582 -116.657602 218 22346ft 388kts
06-Jul-15 16:45 34.505758 -116.737217 218 21329ft 382kts
06-Jul-15 16:46 34.425120 -116.812728 218 20385ft 377kts
06-Jul-15 16:47 34.344199 -116.888309 219 19495ft 371kts
06-Jul-15 16:48 34.263133 -116.963853 219 18581ft 363kts
06-Jul-15 16:49 34.183653 -117.037741 219 17926ft 358kts
06-Jul-15 16:50 34.108309 -117.111883 235 17908ft 355kts
06-Jul-15 16:51 34.065479 -117.204499 241 16320ft 309kts
06-Jul-15 16:52 34.043008 -117.301555 263 14529ft 302kts
06-Jul-15 16:53 34.033766 -117.399576 263 12785ft 269kts
06-Jul-15 16:54 34.029962 -117.482111 274 11806ft 239kts
06-Jul-15 16:55 34.028342 -117.559995 257 11474ft 239kts
06-Jul-15 16:56 34.015253 -117.632461 262 10690ft 234kts
06-Jul-15 16:57 34.007034 -117.696721 263 10017ft 231kts
06-Jul-15 16:58 33.997391 -117.786542 262 9995ft 233kts
06-Jul-15 16:59 33.990080 -117.859199 261 10032ft 199kts
06-Jul-15 17:00 33.984536 -117.914808 261 8339ft 197kts
06-Jul-15 17:01 33.978082 -117.979416 261 7088ft 194kts
06-Jul-15 17:02 33.971704 -118.043655 261 5903ft 191kts
06-Jul-15 17:03 33.965501 -118.105679 261 4800ft 188kts
06-Jul-15 17:04 33.959934 -118.161195 261 3852ft 165kts
06-Jul-15 17:05 33.954477 -118.215167 261 2922ft 162kts
06-Jul-15 17:06 33.949660 -118.262653 261 2105ft 130kts
06-Jul-15 17:07 33.945357 -118.304885 261 1417ft 122kts
06-Jul-15 17:08 33.941523 -118.342453 262 825ft 114kts
06-Jul-15 17:09 33.937768 -118.379213 261 245ft 104kts
06-Jul-15 17:10 33.935258 -118.401048 244 129ft 29kts
06-Jul-15 17:11 33.934480 -118.402516 205 129ft 0kts
06-Jul-15 17:12 33.934458 -118.398943 83 129ft 17kts
06-Jul-15 17:13 33.934304 -118.393934 211 129ft 6kts
06-Jul-15 17:14 33.934312 -118.394430 173 129ft 0kts
06-Jul-15 17:15 33.934312 -118.394430 173 129ft 0kts
06-Jul-15 17:16 33.934312 -118.394430 173 129ft 0kts

Navigation Log

Ident Type
Flight plan parsing failed, navigation log unavailable